Flight Track Log - Related Links

Times and Time Zones

All times are in EDT time to prevent confusion due to time zone crossing. See the UAL102 flight status page for this flight to view local times or setup timezone preferences in your user account.

Time Position Orientation Groundspeed Altitude Reporting Facility
EDT Latitude Longitude Course Direction KTS MPH feet Rate Location/Type
Thu 05:03:45 PM 37.6333 -122.3500 67° East 150 173 1,000  Level Northern Cal TRACON
Thu 05:04:50 PM 37.6833 -122.3000 38° Northeast 226 260 3,600 2,323 Climbing Northern Cal TRACON
Thu 05:05:18 PM 37.6981 -122.2756 53° Northeast 225 259 4,600 2,697 Climbing Oakland Center
Thu 05:06:00 PM 37.6342 -122.4219 120° Southeast  Level FlightAware Approximate
Thu 05:06:19 PM 37.7525 -122.2042 46° Northeast 273 314 7,600  Level Oakland Center
Thu 05:07:00 PM 37.6439 -122.2744 72° East  Level FlightAware Approximate
Thu 05:07:20 PM 37.8111 -122.1272 46° Northeast 297 342 10,700  Level Oakland Center
Thu 05:08:00 PM 37.6939 -122.1290 58° Northeast  Level FlightAware Approximate
Thu 05:08:22 PM 37.8806 -122.0444 43° Northeast 343 395 13,700  Level Oakland Center
Thu 05:09:00 PM 37.7399 -121.9804 67° East  Level FlightAware Approximate
Thu 05:09:23 PM 37.9178 -121.9031 72° East 362 417 16,900  Level Oakland Center
Thu 05:10:24 PM 37.9408 -121.7719 77° East 381 438 19,400 1,951 Climbing Oakland Center
Thu 05:11:26 PM 37.9647 -121.6383 77° East 389 448 20,900 780 Climbing Oakland Center
Thu 05:12:27 PM 37.9875 -121.5025 78° East 395 455 21,000 1,220 Climbing Oakland Center
Thu 05:13:29 PM 38.0133 -121.3569 77° East 400 460 23,400 2,098 Climbing Oakland Center
Thu 05:14:30 PM 38.0383 -121.2156 77° East 411 473 25,300 1,770 Climbing Oakland Center
Thu 05:15:31 PM 38.0681 -121.0692 75° East 428 493 27,000 1,610 Climbing Oakland Center
Thu 05:16:33 PM 38.1158 -120.9253 67° East 445 512 28,600 1,561 Climbing Oakland Center
Thu 05:17:34 PM 38.1636 -120.7783 67° East 451 519 30,200 1,475 Climbing Oakland Center
Thu 05:18:35 PM 38.2072 -120.6244 70° East 465 535 31,600 1,659 Climbing Oakland Center
Thu 05:19:37 PM 38.2381 -120.4303 79° East 469 540 33,600 1,610 Climbing Oakland Center
Thu 05:20:38 PM 38.2650 -120.2675 78° East 472 543 34,900 1,220 Climbing Oakland Center
Thu 05:21:40 PM 38.2908 -120.1047 79° East 470 541 36,100 1,122 Climbing Oakland Center
Thu 05:22:41 PM 38.3189 -119.9403 78° East 475 547 37,200 984 Climbing Oakland Center
Thu 05:23:42 PM 38.3458 -119.7767 78° East 474 545 38,100 878 Climbing Oakland Center
Thu 05:24:44 PM 38.3725 -119.6128 78° East 474 545 39,000 439 Climbing Oakland Center
Thu 05:25:45 PM 38.4039 -119.4236 78° East 474 545 39,000  Level Oakland Center
Thu 05:26:47 PM 38.4300 -119.2597 78° East 474 545 39,000  Level Oakland Center
Thu 05:27:48 PM 38.4561 -119.0967 78° East 472 543 39,000  Level Oakland Center
Thu 05:28:49 PM 38.4817 -118.9311 79° East 476 548 39,000  Level Oakland Center
Thu 05:29:51 PM 38.5075 -118.7681 79° East 473 544 39,000  Level Oakland Center
Thu 05:30:52 PM 38.5325 -118.6039 79° East 474 545 39,000  Level Oakland Center
Thu 05:31:54 PM 38.5586 -118.4394 78° East 474 545 39,000  Level Oakland Center
Thu 05:32:56 PM 38.5833 -118.2756 79° East 473 544 39,000  Level Oakland Center
Thu 05:33:56 PM 38.6125 -118.0781 79° East 473 544 39,000  Level Oakland Center
Thu 05:34:58 PM 38.6347 -117.9311 79° East 475 547 39,000  Level Oakland Center
Thu 05:35:59 PM 38.6614 -117.7486 79° East 472 543 39,000  Level Oakland Center
Thu 05:37:00 PM 38.6828 -117.5992 80° East 472 543 39,000  Level Oakland Center
Thu 05:38:02 PM 38.7119 -117.4000 79° East 471 542 39,000  Level Oakland Center
Thu 05:38:23 PM 38.7161 -117.3664 81° East 472 543 39,000  Level Salt Lake Center
Thu 05:39:25 PM 38.7389 -117.1997 80° East 473 544 39,000  Level Salt Lake Center
Thu 05:40:05 PM 38.7578 -117.0667 80° East 472 543 39,000  Level Oakland Center
Thu 05:41:06 PM 38.7817 -116.9008 79° East 470 541 39,000  Level Oakland Center
Thu 05:41:29 PM 38.7900 -116.8344 81° East 471 542 39,000  Level Salt Lake Center
Thu 05:42:31 PM 38.8125 -116.6686 80° East 470 541 39,000  Level Salt Lake Center
Thu 05:43:09 PM 38.8261 -116.5686 80° East 471 542 39,000 -61 Level Oakland Center
Thu 05:44:10 PM 38.8489 -116.4025 80° East 471 542 38,900  Descending Oakland Center
Thu 05:44:35 PM 38.8575 -116.3356 81° East 474 545 39,000 70 Climbing Salt Lake Center
Thu 05:45:36 PM 38.8786 -116.1714 81° East 468 539 39,000  Level Salt Lake Center
Thu 05:46:38 PM 38.9003 -116.0067 80° East 467 537 39,000  Level Salt Lake Center
Thu 05:47:40 PM 38.9219 -115.8425 80° East 467 537 39,000  Level Salt Lake Center
Thu 05:48:42 PM 38.9469 -115.6442 81° East 469 540 39,000  Level Salt Lake Center
Thu 05:49:44 PM 38.9675 -115.4789 81° East 468 539 39,000  Level Salt Lake Center
Thu 05:50:46 PM 38.9869 -115.3322 80° East 468 539 39,000  Level Salt Lake Center
Thu 05:51:48 PM 39.0114 -115.1344 81° East 470 541 39,000  Level Salt Lake Center
Thu 05:52:50 PM 39.0317 -114.9692 81° East 468 539 39,000  Level Salt Lake Center
Thu 05:53:52 PM 39.0511 -114.8039 81° East 468 539 39,000  Level Salt Lake Center
Thu 05:54:54 PM 39.0711 -114.6367 81° East 472 543 39,000  Level Salt Lake Center
Thu 05:55:55 PM 39.0911 -114.4708 81° East 469 540 39,000  Level Salt Lake Center
Thu 05:56:57 PM 39.1108 -114.3058 81° East 468 539 39,000  Level Salt Lake Center
Thu 05:57:59 PM 39.1292 -114.1400 82° East 468 539 39,000  Level Salt Lake Center
Thu 05:59:01 PM 39.1519 -113.9417 82° East 467 537 39,000  Level Salt Lake Center
Thu 06:00:03 PM 39.1697 -113.7775 82° East 464 534 39,000  Level Salt Lake Center
Thu 06:01:05 PM 39.1881 -113.6108 82° East 468 539 39,000  Level Salt Lake Center
Thu 06:02:06 PM 39.2064 -113.4444 82° East 469 540 39,000  Level Salt Lake Center
Thu 06:03:08 PM 39.2231 -113.2789 83° East 467 537 39,000  Level Salt Lake Center
Thu 06:04:10 PM 39.2406 -113.1103 82° East 471 542 39,000  Level Salt Lake Center
Thu 06:05:12 PM 39.2583 -112.9433 82° East 471 542 39,000  Level Salt Lake Center
Thu 06:06:13 PM 39.2786 -112.7433 82° East 469 540 39,000  Level Salt Lake Center
Thu 06:07:15 PM 39.2939 -112.5986 82° East 467 537 39,000  Level Salt Lake Center
Thu 06:08:17 PM 39.3153 -112.4361 80° East 462 532 39,000  Level Salt Lake Center
Thu 06:09:19 PM 39.3528 -112.2450 76° East 460 529 39,000  Level Salt Lake Center
Thu 06:10:20 PM 39.3814 -112.0853 77° East 459 528 39,000  Level Salt Lake Center
Thu 06:11:22 PM 39.4117 -111.9272 76° East 457 526 39,000  Level Salt Lake Center
Thu 06:12:24 PM 39.4406 -111.7653 77° East 461 531 39,000  Level Salt Lake Center
Thu 06:13:26 PM 39.4697 -111.6056 77° East 460 529 39,000  Level Salt Lake Center
Thu 06:14:28 PM 39.4981 -111.4453 77° East 460 529 39,000  Level Salt Lake Center
Thu 06:15:29 PM 39.5306 -111.2647 77° East 459 528 39,000  Level Salt Lake Center
Thu 06:16:31 PM 39.5617 -111.0869 77° East 454 522 39,000  Level Salt Lake Center
Thu 06:17:33 PM 39.5872 -110.9375 77° East 447 514 39,000  Level Salt Lake Center
Thu 06:18:35 PM 39.6136 -110.7878 77° East 444 511 39,000  Level Salt Lake Center
Thu 06:19:37 PM 39.6433 -110.6119 78° East 446 513 39,000  Level Salt Lake Center
Thu 06:20:39 PM 39.6689 -110.4606 78° East 448 516 39,000  Level Salt Lake Center
Thu 06:21:40 PM 39.6986 -110.2822 78° East 452 520 39,000  Level Salt Lake Center
Thu 06:22:42 PM 39.7244 -110.1289 78° East 454 522 39,000  Level Salt Lake Center
Thu 06:23:44 PM 39.7539 -109.9514 78° East 452 520 39,000  Level Salt Lake Center
Thu 06:24:46 PM 39.7789 -109.7975 78° East 455 524 39,000  Level Salt Lake Center
Thu 06:25:48 PM 39.8039 -109.6436 78° East 454 522 39,000  Level Salt Lake Center
Thu 06:26:24 PM 39.8203 -109.5397 78° East 454 522 39,000  Level Denver Center
Thu 06:27:26 PM 39.8486 -109.3617 78° East 451 519 39,000  Level Denver Center
Thu 06:27:52 PM 39.8564 -109.3122 78° East 450 518 39,000  Level Salt Lake Center
Thu 06:28:53 PM 39.8850 -109.1328 78° East 451 519 39,000  Level Salt Lake Center
Thu 06:29:55 PM 39.9092 -108.9789 78° East 451 519 39,000  Level Salt Lake Center
Thu 06:30:57 PM 39.9367 -108.8003 79° East 447 514 39,000  Level Salt Lake Center
Thu 06:31:46 PM 39.9494 -108.7225 78° East 449 517 39,000  Level Denver Center
Thu 06:32:48 PM 39.9789 -108.5178 79° East 447 514 39,000  Level Denver Center
Thu 06:33:50 PM 40.0022 -108.3633 79° East 451 519 39,000  Level Denver Center
Thu 06:34:52 PM 40.0289 -108.1847 79° East 448 516 39,000  Level Denver Center
Thu 06:35:54 PM 40.0519 -108.0297 79° East 453 521 39,000  Level Denver Center
Thu 06:36:57 PM 40.0736 -107.8469 81° East 456 525 39,000  Level Denver Center
Thu 06:37:59 PM 40.0861 -107.6894 84° East 456 525 39,000  Level Denver Center
Thu 06:39:01 PM 40.1028 -107.5061 83° East 457 526 39,000  Level Denver Center
Thu 06:40:03 PM 40.1147 -107.3519 84° East 449 517 39,000  Level Denver Center
Thu 06:41:05 PM 40.1300 -107.1706 84° East 448 516 39,000  Level Denver Center
Thu 06:42:07 PM 40.1419 -107.0164 84° East 445 512 39,000  Level Denver Center
Thu 06:43:09 PM 40.1553 -106.8367 84° East 447 514 39,000  Level Denver Center
Thu 06:44:11 PM 40.1675 -106.6822 84° East 447 514 39,000  Level Denver Center
Thu 06:45:13 PM 40.1797 -106.5106 85° East 449 517 39,000  Level Denver Center
Thu 06:46:15 PM 40.1917 -106.3567 84° East 448 516 39,000  Level Denver Center
Thu 06:47:29 PM 40.2017 -106.1928 85° East 448 516 39,000  Level Denver Center
Thu 06:48:31 PM 40.2192 -105.9731 84° East 449 517 39,000  Level Denver Center
Thu 06:49:33 PM 40.2300 -105.8083 85° East 450 518 39,000  Level Denver Center
Thu 06:50:35 PM 40.2397 -105.6442 86° East 449 517 39,000  Level Denver Center
Thu 06:51:37 PM 40.2514 -105.4769 85° East 453 521 39,000  Level Denver Center
Thu 06:52:51 PM 40.2617 -105.3083 85° East 457 526 39,000  Level Denver Center
Thu 06:53:53 PM 40.2750 -105.0831 85° East 459 528 39,000  Level Denver Center
Thu 06:54:54 PM 40.2825 -104.9692 85° East 464 534 39,000  Level Denver Center
Thu 06:55:57 PM 40.2953 -104.7475 86° East 453 521 39,000  Level Denver Center
Thu 06:56:59 PM 40.3056 -104.5775 85° East 459 528 39,000  Level Denver Center
Thu 06:58:01 PM 40.3144 -104.4103 86° East 454 522 39,000  Level Denver Center
Thu 06:59:03 PM 40.3244 -104.2431 85° East 453 521 39,000  Level Denver Center
Thu 07:00:05 PM 40.3314 -104.0794 87° East 445 512 39,000  Level Denver Center
Thu 07:01:07 PM 40.3403 -103.9122 86° East 455 524 39,000  Level Denver Center
Thu 07:02:09 PM 40.3483 -103.7503 86° East 439 505 39,000  Level Denver Center
Thu 07:03:11 PM 40.3583 -103.5581 86° East 447 514 39,000  Level Denver Center
Thu 07:04:12 PM 40.3636 -103.4489 86° East 447 514 39,000  Level Denver Center
Thu 07:05:14 PM 40.3733 -103.2292 87° East 448 516 39,000  Level Denver Center
Thu 07:06:17 PM 40.3806 -103.0639 87° East 450 518 39,000  Level Denver Center
Thu 07:07:19 PM 40.3875 -102.8947 87° East 458 527 39,000  Level Denver Center
Thu 07:08:21 PM 40.3947 -102.7258 87° East 461 531 39,000  Level Denver Center
Thu 07:09:23 PM 40.4014 -102.5506 87° East 457 526 39,000  Level Denver Center
Thu 07:10:25 PM 40.4086 -102.3642 87° East 458 527 39,000  Level Denver Center
Thu 07:11:27 PM 40.4144 -102.2061 87° East 455 524 39,000  Level Denver Center
Thu 07:12:29 PM 40.4203 -102.0469 87° East 456 525 39,000  Level Denver Center
Thu 07:13:31 PM 40.4261 -101.8586 88° East 462 532 39,000  Level Denver Center
Thu 07:14:33 PM 40.4319 -101.6983 87° East 460 529 39,000  Level Denver Center
Thu 07:15:34 PM 40.4367 -101.5369 88° East 462 532 39,000  Level Denver Center
Thu 07:16:36 PM 40.4414 -101.3772 88° East 460 529 39,000  Level Denver Center
Thu 07:17:39 PM 40.4475 -101.1653 88° East 456 525 39,000  Level Denver Center
Thu 07:18:41 PM 40.4517 -101.0072 88° East 456 525 39,000  Level Denver Center
Thu 07:19:43 PM 40.4578 -100.8231 87° East 456 525 39,000  Level Denver Center
Thu 07:20:45 PM 40.4667 -100.6672 86° East 453 521 39,000  Level Denver Center
Thu 07:21:47 PM 40.4758 -100.4844 86° East 454 522 39,000  Level Denver Center
Thu 07:22:49 PM 40.4836 -100.2994 87° East 458 527 39,000  Level Denver Center
Thu 07:23:51 PM 40.4906 -100.1408 87° East 459 528 39,000  Level Denver Center
Thu 07:24:53 PM 40.4958 -100.0078 87° East 459 528 39,000  Level Denver Center
Thu 07:25:55 PM 40.5047 -99.8147 86° East 461 531 39,000  Level Denver Center
Thu 07:26:57 PM 40.5125 -99.6081 87° East 470 541 39,000  Level Denver Center
Thu 07:27:59 PM 40.5200 -99.4389 87° East 466 536 39,000  Level Denver Center
Thu 07:29:13 PM 40.5253 -99.2667 88° East 472 543 39,000  Level Denver Center
Thu 07:30:09 PM 40.5328 -99.0650 87° East 469 540 39,000  Level Minneapolis Center
Thu 07:31:11 PM 40.5386 -98.8961 87° East 467 537 39,000  Level Minneapolis Center
Thu 07:32:13 PM 40.5436 -98.7272 88° East 466 536 39,000  Level Minneapolis Center
Thu 07:33:14 PM 40.5486 -98.5589 88° East 465 535 39,000  Level Minneapolis Center
Thu 07:34:16 PM 40.5542 -98.3917 87° East 463 533 39,000  Level Minneapolis Center
Thu 07:35:30 PM 40.5600 -98.1903 88° East 461 531 39,000  Level Minneapolis Center
Thu 07:36:32 PM 40.5642 -97.9892 88° East 460 529 39,000  Level Minneapolis Center
Thu 07:37:34 PM 40.5683 -97.8225 88° East 458 527 39,000  Level Minneapolis Center
Thu 07:38:36 PM 40.5725 -97.6567 88° East 456 525 39,000  Level Minneapolis Center
Thu 07:39:38 PM 40.5756 -97.4897 89° East 456 525 39,000  Level Minneapolis Center
Thu 07:40:39 PM 40.5797 -97.3261 88° East 457 526 39,000  Level Minneapolis Center
Thu 07:41:41 PM 40.5819 -97.1597 89° East 456 525 39,000  Level Minneapolis Center
Thu 07:42:43 PM 40.5861 -96.9594 88° East 457 526 39,000  Level Minneapolis Center
Thu 07:43:44 PM 40.5883 -96.7908 89° East 461 531 39,000  Level Minneapolis Center
Thu 07:44:46 PM 40.5911 -96.6225 89° East 462 532 39,000  Level Minneapolis Center
Thu 07:45:48 PM 40.5933 -96.4539 89° East 463 533 39,000  Level Minneapolis Center
Thu 07:46:49 PM 40.5950 -96.3208 89° East 461 531 39,000  Level Minneapolis Center
Thu 07:47:51 PM 40.5964 -96.1200 89° East 460 529 39,000  Level Minneapolis Center
Thu 07:48:53 PM 40.5986 -95.9214 89° East 457 526 39,000  Level Minneapolis Center
Thu 07:49:55 PM 40.5992 -95.7550 90° East 457 526 39,000  Level Minneapolis Center
Thu 07:50:56 PM 40.6006 -95.5867 89° East 461 531 39,000  Level Minneapolis Center
Thu 07:51:58 PM 40.6003 -95.4197 90° East 460 529 39,000  Level Minneapolis Center
Thu 07:53:00 PM 40.6022 -95.2503 89° East 462 532 39,000  Level Minneapolis Center
Thu 07:54:14 PM 40.6031 -95.0822 90° East 463 533 39,000  Level Minneapolis Center
Thu 07:55:16 PM 40.6017 -94.8461 90° East 463 533 39,000  Level Minneapolis Center
Thu 07:56:17 PM 40.6017 -94.6767 90° East 465 535 39,000  Level Minneapolis Center
Thu 07:57:19 PM 40.6008 -94.5203 90° East 463 533 39,000  Level Minneapolis Center
Thu 07:58:21 PM 40.6003 -94.3536 90° East 460 529 39,000  Level Minneapolis Center
Thu 07:59:22 PM 40.5975 -94.2228 92° East 455 524 39,000  Level Minneapolis Center
Thu 08:00:25 PM 40.5953 -93.9917 91° East 454 522 39,000  Level Minneapolis Center
Thu 08:01:26 PM 40.5936 -93.8283 91° East 451 519 39,000  Level Minneapolis Center
Thu 08:02:28 PM 40.5889 -93.6661 92° East 449 517 39,000  Level Minneapolis Center
Thu 08:03:30 PM 40.5847 -93.5039 92° East 447 514 39,000  Level Minneapolis Center
Thu 08:04:17 PM 40.5839 -93.3728 90° East 446 513 39,000  Level Kansas City Center
Thu 08:05:18 PM 40.5786 -93.2131 92° East 442 509 39,000  Level Kansas City Center
Thu 08:06:20 PM 40.5733 -93.0533 92° East 439 505 39,000  Level Kansas City Center
Thu 08:07:22 PM 40.5681 -92.8703 92° East 434 499 39,000  Level Kansas City Center
Thu 08:08:24 PM 40.5644 -92.7183 92° East 433 498 39,000  Level Kansas City Center
Thu 08:09:25 PM 40.5614 -92.5700 92° East 436 502 39,000  Level Kansas City Center
Thu 08:10:27 PM 40.5544 -92.3789 93° East 437 503 39,000  Level Kansas City Center
Thu 08:11:29 PM 40.5489 -92.2236 93° East 436 502 39,000  Level Kansas City Center
Thu 08:12:31 PM 40.5433 -92.0636 93° East 438 504 39,000  Level Kansas City Center
Thu 08:13:32 PM 40.5386 -91.9044 92° East 438 504 39,000  Level Kansas City Center
Thu 08:14:34 PM 40.5314 -91.7453 93° East 438 504 39,000  Level Kansas City Center
Thu 08:15:36 PM 40.5242 -91.5867 93° East 438 504 39,000  Level Kansas City Center
Thu 08:16:37 PM 40.5161 -91.3953 93° East 440 506 39,000  Level Kansas City Center
Thu 08:17:40 PM 40.5117 -91.2308 92° East 439 505 39,000  Level Chicago Center
Thu 08:18:42 PM 40.5039 -91.0706 94° East 440 506 39,000  Level Chicago Center
Thu 08:19:44 PM 40.4961 -90.9100 94° East 441 507 39,000  Level Chicago Center
Thu 08:20:46 PM 40.4894 -90.7508 93° East 438 504 39,000  Level Chicago Center
Thu 08:21:48 PM 40.4817 -90.5906 94° East 440 506 39,000  Level Chicago Center
Thu 08:22:50 PM 40.4742 -90.4314 93° East 440 506 39,000  Level Chicago Center
Thu 08:23:52 PM 40.4633 -90.2419 94° East 437 503 39,000  Level Chicago Center
Thu 08:24:54 PM 40.4547 -90.0844 94° East 436 502 39,000  Level Chicago Center
Thu 08:26:55 PM 40.4372 -89.7681 94° East 440 506 39,000  Level Kansas City Center
Thu 08:28:01 PM 40.4264 -89.5769 94° East 443 510 39,000  Level Chicago Center
Thu 08:29:03 PM 40.4178 -89.4164 94° East 443 510 39,000  Level Chicago Center
Thu 08:30:05 PM 40.4078 -89.2572 95° East 442 509 39,000  Level Chicago Center
Thu 08:31:07 PM 40.3989 -89.0956 94° East 445 512 39,000  Level Chicago Center
Thu 08:32:09 PM 40.3894 -88.9347 94° East 445 512 39,000  Level Chicago Center
Thu 08:33:11 PM 40.3797 -88.7750 95° East 442 509 39,000  Level Chicago Center
Thu 08:34:13 PM 40.3658 -88.5850 95° East 439 505 39,000  Level Chicago Center
Thu 08:35:15 PM 40.3561 -88.4303 95° East 437 503 39,000  Level Chicago Center
Thu 08:36:17 PM 40.3450 -88.2736 95° East 436 502 39,000  Level Chicago Center
Thu 08:37:19 PM 40.3347 -88.1167 95° East 436 502 39,000  Level Chicago Center
Thu 08:38:21 PM 40.3219 -87.9283 95° East 436 502 39,000  Level Chicago Center
Thu 08:39:16 PM 40.3100 -87.7911 96° East 436 502 39,000  Level Indianapolis Center
Thu 08:40:17 PM 40.2992 -87.6319 95° East 438 504 39,000  Level Indianapolis Center
Thu 08:41:19 PM 40.2931 -87.4739 93° East 436 502 39,000  Level Indianapolis Center
Thu 08:42:21 PM 40.2911 -87.3153 91° East 436 502 39,000  Level Indianapolis Center
Thu 08:43:22 PM 40.2903 -87.1553 90° East 440 506 39,000  Level Indianapolis Center
Thu 08:44:34 PM 40.2900 -86.9653 90° East 439 505 39,000  Level Chicago Center
Thu 08:45:36 PM 40.2875 -86.8081 91° East 435 501 39,000  Level Chicago Center
Thu 08:46:38 PM 40.2844 -86.6203 91° East 431 496 39,000  Level Chicago Center
Thu 08:47:40 PM 40.2817 -86.4642 91° East 429 494 39,000 145 Level Chicago Center
Thu 08:48:42 PM 40.2794 -86.3058 91° East 431 496 39,300 629 Climbing Chicago Center
Thu 08:49:44 PM 40.2767 -86.1444 91° East 439 505 40,300 823 Climbing Chicago Center
Thu 08:50:46 PM 40.2722 -85.9839 92° East 440 506 41,000 336 Climbing Chicago Center
Thu 08:51:49 PM 40.2697 -85.8244 91° East 439 505 41,000  Level Chicago Center
Thu 08:52:51 PM 40.2653 -85.6647 92° East 439 505 41,000  Level Chicago Center
Thu 08:53:53 PM 40.2594 -85.4725 92° East 442 509 41,000  Level Chicago Center
Thu 08:54:55 PM 40.2553 -85.3169 92° East 435 501 41,000  Level Chicago Center
Thu 08:55:39 PM 40.2519 -85.2231 93° East 436 502 41,000  Level Indianapolis Center
Thu 08:56:41 PM 40.2469 -85.0364 92° East 430 495 41,000  Level Indianapolis Center
Thu 08:57:42 PM 40.2433 -84.8750 92° East 433 498 41,000 -49 Level Indianapolis Center
Thu 08:58:44 PM 40.2394 -84.7186 92° East 428 493 40,900  Descending Indianapolis Center
Thu 08:59:45 PM 40.2331 -84.5600 93° East 434 499 41,000  Climbing Indianapolis Center
Thu 09:00:46 PM 40.2275 -84.4008 93° East 433 498 40,900 -49 Descending Indianapolis Center
Thu 09:01:48 PM 40.2222 -84.2417 92° East 434 499 40,900  Level Indianapolis Center
Thu 09:02:49 PM 40.2158 -84.0819 93° East 433 498 40,900 49 Level Indianapolis Center
Thu 09:03:50 PM 40.2117 -83.9211 92° East 437 503 41,000 49 Climbing Indianapolis Center
Thu 09:04:52 PM 40.2042 -83.7589 93° East 440 506 41,000  Level Indianapolis Center
Thu 09:05:53 PM 40.1975 -83.5950 93° East 443 510 41,000  Level Indianapolis Center
Thu 09:06:54 PM 40.1906 -83.4286 93° East 449 517 41,000  Level Indianapolis Center
Thu 09:07:56 PM 40.1650 -83.2706 102° East 443 510 41,000  Level Indianapolis Center
Thu 09:08:57 PM 40.1286 -83.1156 107° East 440 506 41,000  Level Indianapolis Center
Thu 09:09:58 PM 40.0914 -82.9631 108° East 435 501 41,000 -49 Level Indianapolis Center
Thu 09:11:00 PM 40.0553 -82.8128 107° East 431 496 40,900  Descending Indianapolis Center
Thu 09:12:01 PM 40.0200 -82.6639 107° East 426 490 41,000 49 Climbing Indianapolis Center
Thu 09:13:02 PM 39.9839 -82.5136 107° East 427 491 41,000 -49 Level Indianapolis Center
Thu 09:14:04 PM 39.9483 -82.3650 107° East 427 491 40,900  Descending Indianapolis Center
Thu 09:15:05 PM 39.9114 -82.2167 108° East 426 490 41,000 49 Climbing Indianapolis Center
Thu 09:16:07 PM 39.8742 -82.0678 108° East 429 494 41,000  Level Indianapolis Center
Thu 09:17:08 PM 39.8378 -81.9189 108° East 428 493 41,000  Level Indianapolis Center
Thu 09:18:09 PM 39.8558 -81.7392 82° East 438 504 41,000  Level Indianapolis Center
Thu 09:18:59 PM 39.8708 -81.6108 81° East 430 495 41,000 -55 Level Cleveland Center
Thu 09:19:59 PM 39.8489 -81.4781 102° East 414 476 40,900  Descending Cleveland Center
Thu 09:20:59 PM 39.8019 -81.3233 112° Southeast 414 476 41,000 50 Climbing Cleveland Center
Thu 09:21:59 PM 39.7569 -81.1961 115° Southeast 421 484 41,000  Level Cleveland Center
Thu 09:22:59 PM 39.7097 -81.0553 114° Southeast 421 484 41,000  Level Cleveland Center
Thu 09:25:21 PM 39.6000 -80.7258 113° Southeast 422 486 41,000  Level Indianapolis Center
Thu 09:26:22 PM 39.5519 -80.5853 114° Southeast 424 488 41,000 -446 Level Indianapolis Center
Thu 09:27:22 PM 39.5039 -80.4331 112° Southeast 436 502 40,100 -885 Descending Washington Center
Thu 09:28:24 PM 39.4553 -80.2928 114° Southeast 424 488 39,200 -1,180 Descending Washington Center
Thu 09:29:24 PM 39.4086 -80.1500 113° Southeast 424 488 37,700 -2,136 Descending Washington Center
Thu 09:30:22 PM 39.3597 -80.0075 114° Southeast 430 495 35,000 -2,949 Descending Washington Center
Thu 09:31:22 PM 39.3125 -79.8758 115° Southeast 436 502 31,900 -1,983 Descending Washington Center
Thu 09:32:23 PM 39.2886 -79.7214 101° East 436 502 31,000 -446 Descending Washington Center
Thu 09:33:23 PM 39.2772 -79.5653 95° East 436 502 31,000 -248 Level Washington Center
Thu 09:34:24 PM 39.2636 -79.4064 96° East 436 502 30,500 -1,462 Descending Washington Center
Thu 09:35:22 PM 39.2481 -79.2394 97° East 431 496 28,100 -1,261 Descending Washington Center
Thu 09:36:23 PM 39.2336 -79.0858 97° East 426 490 28,000 -1,082 Descending Washington Center
Thu 09:37:24 PM 39.2214 -78.9378 96° East 426 490 25,900 -2,168 Descending Washington Center
Thu 09:38:22 PM 39.2064 -78.7981 98° East 411 473 23,700 -2,218 Descending Washington Center
Thu 09:39:23 PM 39.1931 -78.6633 97° East 393 452 21,500 -2,132 Descending Washington Center
Thu 09:40:23 PM 39.1819 -78.5317 96° East 382 440 19,400 -2,033 Descending Washington Center
Thu 09:41:24 PM 39.1683 -78.4028 98° East 368 423 17,400 -1,966 Descending Washington Center
Thu 09:42:22 PM 39.1458 -78.2867 104° East 349 402 15,500 -1,613 Descending Washington Center
Thu 09:43:23 PM 39.1169 -78.1786 109° East 330 380 14,200 -885 Descending Washington Center
Thu 09:44:24 PM 39.0900 -78.0733 108° East 318 366 13,700 -706 Descending Washington Center
Thu 09:45:22 PM 39.0650 -77.9683 107° East 308 354 12,800 -864 Descending Washington Center
Thu 09:46:22 PM 39.0358 -77.8631 110° East 308 354 12,000 -793 Descending Washington Center
Thu 09:47:23 PM 39.0125 -77.7717 108° East 308 354 11,200 -900 Descending Washington Center
Thu 09:48:22 PM 38.9853 -77.6611 108° East 303 349 10,200 -1,231 Descending Washington Center
Thu 09:49:20 PM 38.9500 -77.5667 116° Southeast 277 319 8,800 -1,258 Descending Potomac TRACON
Thu 09:50:26 PM 38.9667 -77.4833 76° East 257 296 7,600 -1,100 Descending Potomac TRACON
Thu 09:51:20 PM 39.0000 -77.4167 57° Northeast 229 264 6,600 -1,222 Descending Potomac TRACON
Thu 09:52:14 PM 39.0333 -77.3667 49° Northeast 218 251 5,400 -1,000 Descending Potomac TRACON
Thu 09:53:20 PM 39.0500 -77.2833 76° East 211 243 4,600 -952 Descending Potomac TRACON
Thu 09:54:20 PM 39.0333 -77.2167 108° East 201 231 3,400 -800 Descending Potomac TRACON
Thu 09:55:20 PM 39.0000 -77.1833 142° Southeast 180 207 3,000 -574 Descending Potomac TRACON
Thu 09:56:15 PM 38.9667 -77.1500 142° Southeast 170 196 2,300 -764 Descending Potomac TRACON

Login

Don't have an account? Register now (free) for customized features, flight alerts, and more!